Time;durP1;ratioP1;P1;durP2;ratioP2;P2;SDS_P1;SDS_P2;PMS_P1;PMS_P2;Temp;Humidity;BMP_temperature;BMP_pressure;BME280_temperature;BME280_humidity;BME280_pressure;Samples;Min_cycle;Max_cycle;Signal;HPM_P1;HPM_P2
2021/05/13 00:01:15;;;;;;;24.70;12.63;;;;;;;14.28;79.65;99035.16;125430;1099;22888;-63
2021/05/13 00:03:46;;;;;;;23.20;12.65;;;;;;;14.28;80.00;99043.58;125568;1104;24689;-63
2021/05/13 00:06:15;;;;;;;23.30;13.40;;;;;;;14.27;80.39;99044.85;125575;1104;22750;-65
2021/05/13 00:08:43;;;;;;;22.90;12.85;;;;;;;14.30;80.83;99037.42;125674;1104;22929;-64
2021/05/13 00:11:13;;;;;;;24.73;13.10;;;;;;;14.30;80.30;99034.61;125550;1104;25271;-64
2021/05/13 00:13:43;;;;;;;23.00;12.53;;;;;;;14.30;80.88;99037.42;125575;1100;22754;-63
2021/05/13 00:16:12;;;;;;;24.73;13.73;;;;;;;14.30;81.06;99034.61;125545;1099;25989;-64
2021/05/13 00:18:40;;;;;;;27.10;14.85;;;;;;;14.30;81.02;99034.61;125564;1099;27846;-63
2021/05/13 00:21:09;;;;;;;23.65;13.60;;;;;;;14.30;81.06;99032.56;125532;1104;22922;-64
2021/05/13 00:23:38;;;;;;;26.20;14.30;;;;;;;14.31;81.21;99041.75;125576;1104;22778;-64
2021/05/13 00:26:06;;;;;;;26.50;14.85;;;;;;;14.31;80.94;99030.53;125536;1104;22738;-63
2021/05/13 00:28:35;;;;;;;23.70;14.50;;;;;;;14.33;80.91;99025.13;125572;1104;22777;-63
2021/05/13 00:31:04;;;;;;;26.15;13.90;;;;;;;14.35;80.78;99022.55;125511;1100;26709;-63
2021/05/13 00:33:32;;;;;;;24.40;13.40;;;;;;;14.38;80.59;99029.92;125531;1099;28627;-63
2021/05/13 00:36:01;;;;;;;22.43;13.87;;;;;;;14.40;80.91;99027.33;125564;1104;22748;-64
2021/05/13 00:38:30;;;;;;;22.70;13.55;;;;;;;14.40;80.81;99035.76;125538;1098;25877;-63
2021/05/13 00:40:59;;;;;;;23.90;14.00;;;;;;;14.43;80.80;99041.05;125560;1104;24995;-64
2021/05/13 00:43:27;;;;;;;26.53;13.90;;;;;;;14.44;80.99;99042.55;125550;1104;22750;-63
2021/05/13 00:45:56;;;;;;;24.20;13.77;;;;;;;14.46;80.92;99039.23;125520;1104;22750;-64
2021/05/13 00:48:32;;;;;;;25.25;12.85;;;;;;;14.47;80.58;99037.92;125670;1104;22777;-65
2021/05/13 00:51:00;;;;;;;24.25;13.90;;;;;;;14.48;80.69;99043.00;125523;1100;22768;-65
2021/05/13 00:53:29;;;;;;;23.27;13.27;;;;;;;14.51;80.67;99043.98;125526;1098;22920;-63
2021/05/13 00:55:57;;;;;;;23.00;13.30;;;;;;;14.54;80.94;99054.16;125551;1104;22974;-63
2021/05/13 00:58:27;;;;;;;25.55;13.40;;;;;;;14.57;80.86;99053.08;125568;1104;24572;-63
2021/05/13 01:01:04;;;;;;;24.48;13.08;;;;;;;14.58;80.88;99051.80;125574;1099;26212;-63
2021/05/13 01:03:34;;;;;;;23.50;13.30;;;;;;;14.61;80.81;99058.41;125666;1105;22862;-65
2021/05/13 01:06:05;;;;;;;23.13;13.05;;;;;;;14.63;80.37;99050.20;125627;1099;22815;-64
2021/05/13 01:08:33;;;;;;;21.83;12.43;;;;;;;14.67;80.71;99042.22;125570;1104;22747;-63
2021/05/13 01:11:02;;;;;;;25.50;13.43;;;;;;;14.67;80.71;99037.33;125579;1105;22754;-64
2021/05/13 01:13:34;;;;;;;23.55;13.80;;;;;;;14.69;80.87;99043.17;125614;1104;23474;-64
2021/05/13 01:16:10;;;;;;;23.90;13.10;;;;;;;14.69;80.73;99045.24;125622;1100;27183;-64
2021/05/13 01:18:40;;;;;;;21.00;11.80;;;;;;;14.69;80.54;99034.01;125551;1100;22838;-63
2021/05/13 01:21:14;;;;;;;21.43;12.03;;;;;;;14.71;80.85;99023.73;125530;1104;22774;-63
2021/05/13 01:23:43;;;;;;;20.93;11.67;;;;;;;14.68;80.84;99016.39;125572;1104;23644;-64
2021/05/13 01:26:14;;;;;;;20.95;12.20;;;;;;;14.67;80.66;99017.67;125601;1100;22750;-64
2021/05/13 01:28:43;;;;;;;23.00;13.50;;;;;;;14.67;80.71;99014.13;125580;1105;22771;-63
2021/05/13 01:31:14;;;;;;;22.90;13.40;;;;;;;14.66;80.82;99013.36;125744;1104;22836;-63
2021/05/13 01:33:43;;;;;;;21.90;12.50;;;;;;;14.66;80.87;99013.36;125757;1105;22843;-64
2021/05/13 01:36:11;;;;;;;25.57;14.43;;;;;;;14.64;81.23;99013.14;125639;1104;22831;-64
2021/05/13 01:38:41;;;;;;;23.83;13.70;;;;;;;14.63;81.04;99005.26;125542;1104;22774;-64
2021/05/13 01:41:09;;;;;;;24.33;13.13;;;;;;;14.61;81.21;99002.23;125767;1104;22790;-64
2021/05/13 01:43:38;;;;;;;26.37;14.70;;;;;;;14.59;81.21;98988.70;125504;1100;26340;-65
2021/05/13 01:46:15;;;;;;;24.03;14.20;;;;;;;14.58;81.46;98987.20;125500;1100;27597;-65
2021/05/13 01:48:44;;;;;;;25.25;13.70;;;;;;;14.56;81.68;98978.56;125532;1104;22768;-65
2021/05/13 01:51:13;;;;;;;23.53;12.65;;;;;;;14.56;81.39;98978.56;125581;1100;26219;-63
2021/05/13 01:53:43;;;;;;;25.15;15.15;;;;;;;14.54;81.58;98973.48;125669;1104;22844;-65
2021/05/13 01:56:13;;;;;;;25.93;14.40;;;;;;;14.53;81.43;98965.58;125615;1104;22868;-63
2021/05/13 01:58:43;;;;;;;26.23;14.70;;;;;;;14.52;81.73;98959.19;125566;1104;22770;-67
2021/05/13 02:01:14;;;;;;;32.85;16.73;;;;;;;14.50;81.47;98958.23;125652;1104;22810;-64
2021/05/13 02:03:44;;;;;;;25.30;15.15;;;;;;;14.50;81.54;98949.81;125564;1100;22700;-64
2021/05/13 02:06:13;;;;;;;31.30;15.60;;;;;;;14.51;81.87;98945.70;125571;1104;24572;-63
2021/05/13 02:08:42;;;;;;;29.35;15.90;;;;;;;14.50;81.88;98924.55;125564;1105;22836;-64
2021/05/13 02:11:11;;;;;;;32.85;17.90;;;;;;;14.49;81.50;98917.40;125583;1104;22932;-65
2021/05/13 02:13:40;;;;;;;29.30;16.90;;;;;;;14.50;81.94;98916.85;125627;1098;28567;-64
2021/05/13 02:16:09;;;;;;;28.10;16.17;;;;;;;14.50;82.57;98910.50;125631;1105;22852;-63
2021/05/13 02:18:38;;;;;;;28.60;17.43;;;;;;;14.48;82.22;98902.59;125536;1099;22767;-64
2021/05/13 02:21:07;;;;;;;30.10;17.95;;;;;;;14.47;82.23;98889.86;125596;1104;24434;-65
2021/05/13 02:23:35;;;;;;;31.67;17.43;;;;;;;14.47;81.80;98897.52;125528;1104;22731;-64
2021/05/13 02:26:04;;;;;;;31.85;16.70;;;;;;;14.48;82.52;98891.36;125543;1104;22754;-63
2021/05/13 02:28:33;;;;;;;35.60;21.00;;;;;;;14.48;82.40;98888.55;125575;1100;27267;-63
2021/05/13 02:31:01;;;;;;;30.50;18.10;;;;;;;14.49;81.78;98892.89;125555;1104;22754;-64
2021/05/13 02:33:30;;;;;;;31.77;18.27;;;;;;;14.50;81.88;98893.66;125562;1104;22777;-65
2021/05/13 02:35:58;;;;;;;32.43;18.73;;;;;;;14.50;81.97;98890.84;125550;1098;25945;-64
2021/05/13 02:38:27;;;;;;;33.55;19.90;;;;;;;14.51;81.97;98889.53;125434;1100;22760;-64
2021/05/13 02:40:55;;;;;;;35.40;20.40;;;;;;;14.55;81.53;98895.59;125573;1099;26673;-64
2021/05/13 02:43:24;;;;;;;32.90;19.67;;;;;;;14.56;81.44;98909.11;125535;1099;22767;-64
2021/05/13 02:45:52;;;;;;;36.85;21.20;;;;;;;14.58;81.67;98914.94;125501;1098;25957;-63
2021/05/13 02:48:21;;;;;;;37.15;21.95;;;;;;;14.61;81.54;98924.32;125530;1105;22753;-64
2021/05/13 02:50:50;;;;;;;35.30;19.70;;;;;;;14.62;81.66;98922.28;125566;1104;24547;-63
2021/05/13 02:53:18;;;;;;;35.30;19.10;;;;;;;14.64;81.91;98922.49;125529;1100;22754;-63
2021/05/13 02:55:47;;;;;;;34.30;19.60;;;;;;;14.61;81.67;98921.52;125582;1104;22750;-64
2021/05/13 02:58:15;;;;;;;33.00;19.55;;;;;;;14.60;81.66;98911.59;125566;1099;28335;-64
2021/05/13 03:00:54;;;;;;;34.10;19.65;;;;;;;14.60;81.64;98920.02;125561;1105;22843;-64
2021/05/13 03:03:22;;;;;;;34.90;20.40;;;;;;;14.57;81.87;98930.27;125566;1105;22787;-64
2021/05/13 03:05:53;;;;;;;36.00;20.55;;;;;;;14.56;81.50;98931.58;125551;1104;22747;-63
2021/05/13 03:08:22;;;;;;;40.45;21.05;;;;;;;14.56;81.58;98928.00;125547;1105;22737;-64
2021/05/13 03:10:51;;;;;;;31.95;18.45;;;;;;;14.56;81.31;98933.63;125760;1104;24476;-64
2021/05/13 03:13:22;;;;;;;33.60;20.47;;;;;;;14.55;81.49;98932.86;125776;1100;22753;-63
2021/05/13 03:15:52;;;;;;;37.20;19.95;;;;;;;14.55;81.20;98935.66;125544;1104;22744;-63
2021/05/13 03:18:22;;;;;;;35.50;19.80;;;;;;;14.55;81.68;98934.91;125564;1104;22751;-64
2021/05/13 03:20:55;;;;;;;31.80;17.65;;;;;;;14.54;81.21;98933.41;125443;1104;22843;-64
2021/05/13 03:23:30;;;;;;;34.75;19.95;;;;;;;14.52;81.33;98939.53;125690;1104;22767;-64
2021/05/13 03:26:01;;;;;;;30.33;17.43;;;;;;;14.52;81.40;98933.19;125707;1105;22777;-64
2021/05/13 03:28:29;;;;;;;31.45;18.35;;;;;;;14.52;81.63;98938.80;125813;1104;22757;-65
2021/05/13 03:30:58;;;;;;;31.70;18.75;;;;;;;14.52;81.44;98944.42;125575;1098;27730;-63
2021/05/13 03:33:27;;;;;;;33.85;17.95;;;;;;;14.53;81.02;98951.53;125506;1104;24415;-63
2021/05/13 03:35:55;;;;;;;34.60;19.05;;;;;;;14.52;81.49;98947.23;125549;1099;25855;-64
2021/05/13 03:38:24;;;;;;;35.80;19.95;;;;;;;14.54;81.42;98944.64;125550;1104;23770;-64
2021/05/13 03:40:53;;;;;;;34.85;18.85;;;;;;;14.54;81.35;98931.36;125560;1104;22851;-65
2021/05/13 03:43:21;;;;;;;36.05;19.60;;;;;;;14.57;81.28;98935.13;125515;1100;25989;-65
2021/05/13 03:45:52;;;;;;;35.60;20.75;;;;;;;14.58;81.16;98934.61;125517;1104;22754;-63
2021/05/13 03:48:21;;;;;;;36.05;19.95;;;;;;;14.57;81.38;98926.70;125772;1105;22752;-64
2021/05/13 03:50:51;;;;;;;33.45;19.30;;;;;;;14.56;81.27;98923.16;125505;1099;27454;-63
2021/05/13 03:53:19;;;;;;;31.98;18.40;;;;;;;14.56;81.41;98919.58;125549;1104;22772;-64
2021/05/13 03:55:51;;;;;;;34.90;20.10;;;;;;;14.56;81.75;98919.58;125513;1105;22806;-64
2021/05/13 03:58:22;;;;;;;36.75;20.75;;;;;;;14.55;81.39;98915.25;125604;1105;22771;-64
2021/05/13 04:01:05;;;;;;;41.90;20.73;;;;;;;14.54;81.54;98916.55;125684;1104;22751;-63
2021/05/13 04:03:34;;;;;;;36.90;21.13;;;;;;;14.53;81.75;98921.41;125576;1104;22822;-65
2021/05/13 04:06:02;;;;;;;39.40;21.43;;;;;;;14.53;81.63;98915.03;125875;1104;22778;-65
2021/05/13 04:08:31;;;;;;;38.40;20.95;;;;;;;14.52;81.60;98917.07;125539;1104;22926;-64
2021/05/13 04:11:00;;;;;;;39.70;21.95;;;;;;;14.51;81.53;98923.23;125648;1104;23235;-64
2021/05/13 04:13:29;;;;;;;37.80;22.60;;;;;;;14.52;81.71;98917.07;125546;1104;24422;-67
2021/05/13 04:15:59;;;;;;;40.70;21.75;;;;;;;14.53;81.75;98921.41;125637;1104;22832;-64
2021/05/13 04:18:28;;;;;;;39.97;22.57;;;;;;;14.54;81.97;98916.55;125603;1104;22763;-65
2021/05/13 04:20:56;;;;;;;45.00;23.77;;;;;;;14.53;81.94;98909.41;125531;1100;23237;-65
2021/05/13 04:23:25;;;;;;;43.20;22.55;;;;;;;14.53;81.53;98900.98;125583;1104;22753;-65
2021/05/13 04:25:53;;;;;;;40.40;22.35;;;;;;;14.55;81.91;98898.39;125581;1100;27270;-65
2021/05/13 04:28:22;;;;;;;46.17;22.77;;;;;;;14.55;82.08;98899.16;125468;1104;25501;-65
2021/05/13 04:30:51;;;;;;;39.75;22.95;;;;;;;14.56;81.88;98900.69;125546;1104;22750;-65
2021/05/13 04:33:20;;;;;;;43.15;22.30;;;;;;;14.54;81.83;98894.09;125477;1104;22751;-65
2021/05/13 04:35:49;;;;;;;41.70;23.30;;;;;;;14.53;82.11;98896.13;125586;1104;24447;-65
2021/05/13 04:38:18;;;;;;;44.20;23.20;;;;;;;14.54;82.18;98892.05;125619;1100;24594;-64
2021/05/13 04:40:50;;;;;;;47.00;25.50;;;;;;;14.55;81.80;98887.16;125590;1104;24585;-64
2021/05/13 04:43:18;;;;;;;44.73;23.87;;;;;;;14.58;82.04;98895.28;125602;1105;22747;-63
2021/05/13 04:45:48;;;;;;;53.30;29.35;;;;;;;14.59;81.91;98888.36;125849;1098;27173;-64
2021/05/13 04:48:19;;;;;;;50.98;27.95;;;;;;;14.60;81.97;98886.31;125542;1104;22938;-63
2021/05/13 04:50:48;;;;;;;49.95;27.00;;;;;;;14.62;82.07;98875.30;125522;1099;27313;-58
2021/05/13 04:53:17;;;;;;;55.23;29.23;;;;;;;14.62;81.69;98874.53;125483;1100;26576;-59
2021/05/13 04:55:46;;;;;;;49.40;26.30;;;;;;;14.62;82.01;98880.14;125463;1104;22812;-59
2021/05/13 04:58:15;;;;;;;45.05;24.83;;;;;;;14.60;82.29;98875.08;125676;1104;22920;-59
2021/05/13 05:00:45;;;;;;;50.07;27.77;;;;;;;14.58;81.90;98872.81;125632;1099;27702;-58
2021/05/13 05:03:14;;;;;;;44.03;25.25;;;;;;;14.59;82.30;98873.55;125844;1104;22754;-59
2021/05/13 05:05:42;;;;;;;46.57;25.93;;;;;;;14.58;82.54;98875.63;125254;1104;22916;-59
2021/05/13 05:08:11;;;;;;;47.60;24.90;;;;;;;14.58;82.35;98870.01;125438;1105;24630;-59
2021/05/13 05:10:40;;;;;;;42.00;24.10;;;;;;;14.57;82.22;98867.72;125459;1099;23438;-60
2021/05/13 05:13:09;;;;;;;39.17;21.70;;;;;;;14.57;82.11;98868.48;125539;1104;24551;-61
2021/05/13 05:15:38;;;;;;;38.20;22.13;;;;;;;14.56;82.19;98854.98;125428;1100;26286;-60
2021/05/13 05:18:07;;;;;;;39.65;23.60;;;;;;;14.55;82.19;98853.46;125550;1104;22794;-60
2021/05/13 05:20:36;;;;;;;44.83;24.58;;;;;;;14.55;82.15;98850.66;125638;1104;25839;-61
2021/05/13 05:23:05;;;;;;;42.63;20.73;;;;;;;14.57;82.31;98848.06;125711;1104;22760;-59
2021/05/13 05:25:34;;;;;;;38.60;23.00;;;;;;;14.55;82.67;98848.61;125524;1099;27139;-62
2021/05/13 05:28:02;;;;;;;39.30;20.60;;;;;;;14.54;82.58;98841.49;125446;1099;27151;-59
2021/05/13 05:30:33;;;;;;;43.95;23.65;;;;;;;14.53;82.23;98833.59;125522;1104;22760;-65
2021/05/13 05:33:03;;;;;;;36.47;20.90;;;;;;;14.51;82.70;98831.33;126045;1099;22794;-59
2021/05/13 05:35:32;;;;;;;42.55;23.43;;;;;;;14.51;82.48;98833.38;125622;1105;22772;-59
2021/05/13 05:38:01;;;;;;;41.50;19.95;;;;;;;14.49;82.53;98831.11;125546;1104;22825;-60
2021/05/13 05:40:30;;;;;;;43.43;23.77;;;;;;;14.50;82.65;98829.06;125529;1104;22996;-60
2021/05/13 05:42:59;;;;;;;41.63;22.17;;;;;;;14.52;82.85;98837.70;125514;1100;26571;-60
2021/05/13 05:45:27;;;;;;;43.25;23.95;;;;;;;14.54;82.75;98838.69;125515;1104;24303;-59
2021/05/13 05:47:59;;;;;;;42.77;23.60;;;;;;;14.57;82.56;98836.83;125555;1104;22766;-62
2021/05/13 05:50:31;;;;;;;42.53;20.33;;;;;;;14.54;82.34;98841.49;125798;1105;22769;-61
2021/05/13 05:52:59;;;;;;;42.90;22.10;;;;;;;14.57;82.39;98837.59;125681;1104;22861;-60
2021/05/13 05:55:30;;;;;;;41.13;22.60;;;;;;;14.58;82.52;98838.35;125554;1099;22866;-60
2021/05/13 05:58:01;;;;;;;40.63;21.90;;;;;;;14.60;82.27;98841.38;126866;1104;22756;-61
2021/05/13 06:00:30;;;;;;;43.50;22.80;;;;;;;14.62;82.25;98835.97;125480;1104;24133;-60
2021/05/13 06:02:59;;;;;;;47.05;23.60;;;;;;;14.64;82.41;98841.80;125562;1104;22945;-59
2021/05/13 06:05:29;;;;;;;42.70;22.10;;;;;;;14.67;82.61;98837.16;125534;1100;27294;-60
2021/05/13 06:07:57;;;;;;;44.27;22.77;;;;;;;14.69;82.25;98831.77;125612;1098;29062;-61
2021/05/13 06:10:26;;;;;;;44.25;21.70;;;;;;;14.70;82.34;98833.26;125486;1099;25880;-60
2021/05/13 06:12:55;;;;;;;43.70;21.50;;;;;;;14.73;82.41;98835.00;125547;1104;22893;-61
2021/05/13 06:15:25;;;;;;;41.35;22.35;;;;;;;14.74;82.08;98839.30;125661;1104;22775;-59
2021/05/13 06:17:54;;;;;;;41.38;22.10;;;;;;;14.75;82.28;98832.41;125594;1100;22831;-59
2021/05/13 06:20:25;;;;;;;43.65;23.35;;;;;;;14.73;82.29;98830.14;125626;1104;22776;-61
2021/05/13 06:22:55;;;;;;;42.63;24.87;;;;;;;14.73;82.17;98835.77;125673;1100;26340;-60
2021/05/13 06:25:25;;;;;;;45.90;22.83;;;;;;;14.77;82.21;98839.00;125770;1104;22835;-60
2021/05/13 06:27:53;;;;;;;;;;;;;;;14.77;82.23;98836.19;126967;1104;22775;-60
2021/05/13 06:30:24;;;;;;;46.90;23.45;;;;;;;14.77;82.69;98835.42;126788;1105;21674;-60
2021/05/13 06:32:56;;;;;;;50.93;23.77;;;;;;;14.77;82.31;98827.00;125561;1104;22934;-59
2021/05/13 06:35:25;;;;;;;44.23;24.23;;;;;;;14.77;82.19;98821.38;125496;1100;25845;-62
2021/05/13 06:37:54;;;;;;;45.33;21.57;;;;;;;14.78;82.08;98825.69;125575;1100;26508;-59
2021/05/13 06:40:23;;;;;;;43.95;22.45;;;;;;;14.79;82.00;98830.78;125515;1104;22785;-59
2021/05/13 06:42:52;;;;;;;38.33;20.60;;;;;;;14.78;81.85;98823.64;125448;1099;27130;-61
2021/05/13 06:45:21;;;;;;;39.80;21.75;;;;;;;14.78;81.74;98825.69;125714;1099;26244;-60
2021/05/13 06:47:50;;;;;;;43.03;21.98;;;;;;;14.80;81.99;98831.52;129747;1104;22557;-61
2021/05/13 06:50:20;;;;;;;40.23;21.83;;;;;;;14.81;81.68;98831.00;129757;1105;22641;-61
2021/05/13 06:52:48;;;;;;;;;;;;;;;14.81;81.79;98827.42;129769;1104;22560;-61
2021/05/13 06:55:17;;;;;;;44.53;19.70;;;;;;;14.79;81.84;98836.41;129751;1104;21318;-62
2021/05/13 06:57:45;;;;;;;41.10;20.27;;;;;;;14.77;81.64;98835.42;125447;1100;25960;-60
2021/05/13 07:00:16;;;;;;;45.07;20.50;;;;;;;14.76;81.89;98837.47;125462;1100;22781;-59
2021/05/13 07:02:47;;;;;;;43.13;24.23;;;;;;;14.80;81.97;98835.09;125716;1100;26417;-59
2021/05/13 07:05:17;;;;;;;44.80;23.60;;;;;;;14.82;81.80;98849.35;125560;1100;22712;-62
2021/05/13 07:07:47;;;;;;;41.78;20.40;;;;;;;14.81;81.97;98836.62;125591;1104;22819;-62
2021/05/13 07:10:16;;;;;;;34.80;18.75;;;;;;;14.82;81.65;98838.11;125820;1104;22750;-60
2021/05/13 07:12:46;;;;;;;33.65;17.60;;;;;;;14.81;81.89;98836.62;125747;1104;22942;-62
2021/05/13 07:15:16;;;;;;;38.65;19.80;;;;;;;14.81;81.78;98830.23;125492;1104;23881;-59
2021/05/13 07:17:44;;;;;;;31.38;17.28;;;;;;;14.82;81.84;98828.92;125536;1105;22844;-59
2021/05/13 07:20:15;;;;;;;34.50;18.43;;;;;;;14.82;81.46;98826.88;125496;1098;26491;-59
2021/05/13 07:22:44;;;;;;;34.47;17.53;;;;;;;14.79;81.31;98836.41;125861;1104;22799;-59
2021/05/13 07:25:14;;;;;;;28.65;14.20;;;;;;;14.75;81.94;98824.73;125608;1104;22752;-60
2021/05/13 07:27:44;;;;;;;36.40;18.07;;;;;;;14.73;81.71;98821.72;125974;1104;22845;-59
2021/05/13 07:30:16;;;;;;;36.05;17.95;;;;;;;14.72;81.77;98828.62;125574;1100;26210;-60
2021/05/13 07:32:46;;;;;;;33.35;17.40;;;;;;;14.74;82.06;98826.02;125564;1104;22750;-58
2021/05/13 07:35:17;;;;;;;33.05;16.85;;;;;;;14.77;81.91;98838.23;125564;1104;23493;-60
2021/05/13 07:37:48;;;;;;;40.50;18.80;;;;;;;14.77;81.97;98830.57;125836;1104;22858;-60
2021/05/13 07:40:23;;;;;;;33.77;16.43;;;;;;;14.78;81.80;98829.26;126333;1104;22723;-60
2021/05/13 07:43:04;;;;;;;36.03;17.63;;;;;;;14.83;81.58;98831.21;126195;1104;22756;-61
2021/05/13 07:45:34;;;;;;;32.40;16.20;;;;;;;14.88;81.82;98832.37;125568;1104;24586;-60
2021/05/13 07:48:12;;;;;;;31.10;15.40;;;;;;;14.92;81.76;98821.58;125592;1104;22919;-59
2021/05/13 07:50:43;;;;;;;28.10;15.35;;;;;;;14.97;81.49;98827.08;125576;1098;25908;-59
2021/05/13 07:53:12;;;;;;;29.23;14.47;;;;;;;14.97;81.42;98824.27;125644;1104;24594;-59
2021/05/13 07:55:41;;;;;;;30.93;14.08;;;;;;;14.95;81.46;98828.91;125584;1104;22900;-59
2021/05/13 07:58:11;;;;;;;28.55;14.58;;;;;;;14.94;81.08;98821.80;125583;1100;28541;-59
2021/05/13 08:00:40;;;;;;;27.20;13.30;;;;;;;14.97;81.39;98829.13;125909;1098;26021;-59
2021/05/13 08:03:11;;;;;;;26.83;13.30;;;;;;;14.94;81.35;98822.53;125586;1104;22929;-60
2021/05/13 08:05:40;;;;;;;26.90;12.90;;;;;;;14.96;81.46;98819.20;125519;1104;22750;-65
2021/05/13 08:08:10;;;;;;;29.20;13.98;;;;;;;14.97;81.25;98817.88;125579;1100;24457;-65
2021/05/13 08:10:40;;;;;;;31.83;14.48;;;;;;;14.96;81.21;98813.58;125720;1104;22822;-61
2021/05/13 08:13:09;;;;;;;25.15;12.85;;;;;;;14.94;81.02;98818.98;125717;1104;24448;-61
2021/05/13 08:15:40;;;;;;;28.20;14.70;;;;;;;14.93;81.29;98821.03;125520;1104;22788;-64
2021/05/13 08:18:11;;;;;;;30.30;15.40;;;;;;;14.92;81.59;98818.77;125464;1104;22781;-61
2021/05/13 08:20:40;;;;;;;26.20;12.57;;;;;;;14.90;81.23;98818.53;125445;1100;22781;-62
2021/05/13 08:23:12;;;;;;;37.20;15.50;;;;;;;14.88;81.38;98818.32;125498;1104;23044;-61
2021/05/13 08:25:44;;;;;;;33.00;14.80;;;;;;;14.89;81.17;98820.61;125541;1099;26423;-61
2021/05/13 08:28:16;;;;;;;30.50;16.00;;;;;;;14.90;81.40;98822.11;125536;1104;22771;-61
2021/05/13 08:30:47;;;;;;;26.75;14.20;;;;;;;15.02;81.83;98820.56;125621;1104;22777;-61
2021/05/13 08:33:16;;;;;;;28.70;15.23;;;;;;;15.17;81.39;98822.80;125894;1104;22813;-61
2021/05/13 08:35:48;;;;;;;28.17;14.00;;;;;;;15.27;81.41;98818.23;125465;1100;26669;-61
2021/05/13 08:38:18;;;;;;;26.20;13.05;;;;;;;15.38;81.19;98815.94;125655;1099;25374;-60
2021/05/13 08:40:49;;;;;;;25.40;12.25;;;;;;;15.43;80.21;98817.14;125661;1104;22969;-63
2021/05/13 08:43:29;;;;;;;26.98;12.45;;;;;;;15.44;80.59;98823.50;125511;1104;22919;-62
2021/05/13 08:46:02;;;;;;;23.65;11.80;;;;;;;15.46;80.23;98823.73;125531;1104;22842;-61
2021/05/13 08:48:40;;;;;;;24.53;12.40;;;;;;;15.49;79.94;98823.39;125659;1099;27280;-62
2021/05/13 08:51:09;;;;;;;28.75;12.05;;;;;;;15.50;80.33;98830.52;125481;1104;22776;-62
2021/05/13 08:53:52;;;;;;;21.90;10.33;;;;;;;15.48;79.84;98829.57;125684;1098;27151;-61
2021/05/13 08:56:23;;;;;;;24.63;12.60;;;;;;;15.46;80.23;98826.55;125556;1104;22760;-65
2021/05/13 08:58:52;;;;;;;25.67;12.07;;;;;;;15.47;80.07;98823.19;125568;1104;22929;-62
2021/05/13 09:01:22;;;;;;;22.50;11.00;;;;;;;15.44;79.91;98832.70;125656;1104;22778;-63
2021/05/13 09:03:53;;;;;;;24.50;12.43;;;;;;;15.42;79.80;98829.65;125725;1099;26229;-62
2021/05/13 09:06:28;;;;;;;22.80;11.10;;;;;;;15.42;79.73;98835.27;125614;1104;22986;-61
2021/05/13 09:09:09;;;;;;;25.60;12.55;;;;;;;15.46;79.81;98829.36;125532;1104;25656;-62
2021/05/13 09:11:49;;;;;;;26.25;12.35;;;;;;;15.54;80.06;98830.92;125473;1104;22836;-62
2021/05/13 09:14:26;;;;;;;27.20;13.80;;;;;;;15.66;79.90;98829.38;125455;1104;22765;-62
2021/05/13 09:16:56;;;;;;;29.45;13.05;;;;;;;15.79;79.62;98834.16;125661;1104;24232;-62
2021/05/13 09:19:26;;;;;;;28.90;14.07;;;;;;;15.91;79.47;98829.80;125858;1104;22763;-62
2021/05/13 09:21:58;;;;;;;24.30;13.50;;;;;;;16.00;79.06;98826.48;125793;1104;22752;-63
2021/05/13 09:24:50;;;;;;;24.00;12.85;;;;;;;16.10;79.22;98822.63;125842;1104;22829;-64
2021/05/13 09:27:22;;;;;;;24.70;13.95;;;;;;;16.23;78.77;98826.66;125618;1098;22754;-62
2021/05/13 09:30:13;;;;;;;29.80;13.70;;;;;;;16.35;78.46;98819.42;125619;1104;22777;-62
2021/05/13 09:32:44;;;;;;;29.15;13.25;;;;;;;16.41;78.61;98826.42;125510;1104;22835;-62
2021/05/13 09:35:15;;;;;;;24.55;11.85;;;;;;;16.43;77.82;98811.80;125768;1100;22929;-62
2021/05/13 09:37:47;;;;;;;24.85;12.70;;;;;;;16.46;77.90;98819.89;125704;1104;22818;-62
2021/05/13 09:40:22;;;;;;;28.70;14.60;;;;;;;16.48;77.91;98811.64;125543;1099;27330;-61
2021/05/13 09:43:10;;;;;;;24.60;13.40;;;;;;;16.51;77.49;98807.00;126333;1104;22774;-62
2021/05/13 09:45:47;;;;;;;27.20;13.30;;;;;;;16.59;77.21;98800.09;126548;1100;22723;-62
2021/05/13 09:48:37;;;;;;;26.27;14.20;;;;;;;16.63;77.25;98808.19;125953;1105;22741;-60
2021/05/13 09:51:24;;;;;;;28.50;14.20;;;;;;;16.62;77.71;98813.06;125566;1104;22780;-60
2021/05/13 09:54:07;;;;;;;28.80;14.15;;;;;;;16.61;77.43;98810.80;125517;1104;22819;-60
2021/05/13 09:56:38;;;;;;;26.90;13.50;;;;;;;16.55;76.77;98801.76;125716;1104;22756;-62
2021/05/13 09:59:24;;;;;;;96.13;62.00;;;;;;;16.52;77.17;98800.80;125637;1104;22929;-61
2021/05/13 10:01:54;;;;;;;33.90;18.40;;;;;;;16.51;77.08;98802.09;125637;1100;22717;-61
2021/05/13 10:04:23;;;;;;;28.63;14.05;;;;;;;16.49;77.20;98801.89;125657;1100;22770;-62
2021/05/13 10:06:52;;;;;;;29.28;13.90;;;;;;;16.42;76.55;98802.59;125643;1099;27182;-62
2021/05/13 10:09:22;;;;;;;25.50;13.53;;;;;;;16.34;76.63;98798.21;125829;1098;25768;-62
2021/05/13 10:11:54;;;;;;;27.25;12.55;;;;;;;16.27;76.63;98796.09;125672;1099;27610;-62
2021/05/13 10:14:24;;;;;;;28.65;14.70;;;;;;;16.23;76.93;98799.27;125654;1099;27600;-61
2021/05/13 10:16:54;;;;;;;;;;;;;;;16.20;76.42;98797.56;125654;1099;26015;-60
2021/05/13 10:19:27;;;;;;;26.15;12.95;;;;;;;16.19;76.73;98796.05;125618;1099;21865;-63
2021/05/13 10:21:59;;;;;;;28.43;14.33;;;;;;;16.22;76.91;98797.01;125754;1100;24451;-62
2021/05/13 10:24:28;;;;;;;28.10;14.80;;;;;;;16.22;76.85;98789.32;125721;1100;22777;-62
2021/05/13 10:26:57;;;;;;;27.18;13.23;;;;;;;16.23;76.85;98796.45;125834;1099;26008;-61
2021/05/13 10:29:38;;;;;;;28.53;14.43;;;;;;;16.21;76.56;98796.25;125608;1099;22774;-61
2021/05/13 10:32:12;;;;;;;31.30;15.20;;;;;;;16.14;76.58;98783.62;125701;1099;25995;-61
2021/05/13 10:34:58;;;;;;;28.35;14.55;;;;;;;16.10;76.40;98777.59;126027;1104;22856;-62
2021/05/13 10:37:31;;;;;;;26.15;13.25;;;;;;;16.12;76.68;98783.42;126043;1104;22774;-61
2021/05/13 10:40:24;;;;;;;27.90;12.10;;;;;;;16.17;76.73;98778.95;125784;1104;25287;-60
2021/05/13 10:43:01;;;;;;;23.15;10.60;;;;;;;16.24;76.19;98783.89;125606;1105;22741;-61
2021/05/13 10:45:43;;;;;;;22.95;11.85;;;;;;;16.27;76.41;98782.77;125726;1104;22840;-61
2021/05/13 10:48:24;;;;;;;23.70;11.53;;;;;;;16.31;76.08;98791.62;125651;1099;26219;-62
2021/05/13 10:50:56;;;;;;;20.85;9.20;;;;;;;16.18;75.90;98783.26;125777;1099;27161;-61
2021/05/13 10:53:42;;;;;;;22.70;11.10;;;;;;;16.05;75.77;98792.58;126036;1104;22781;-62
2021/05/13 10:56:35;;;;;;;27.55;11.80;;;;;;;16.02;76.22;98784.46;125558;1100;25897;-61
2021/05/13 10:59:15;;;;;;;24.40;11.57;;;;;;;15.97;76.38;98788.92;125758;1100;24168;-62
2021/05/13 11:01:47;;;;;;;23.40;9.98;;;;;;;15.96;76.40;98795.88;125743;1100;22818;-61
2021/05/13 11:04:40;;;;;;;23.50;9.70;;;;;;;15.96;76.25;98797.92;125809;1104;22822;-62
2021/05/13 11:07:31;;;;;;;24.05;10.65;;;;;;;15.94;76.17;98789.28;125706;1104;22754;-60
2021/05/13 11:09:59;;;;;;;;;;;;;;;16.02;76.85;98792.91;125834;1104;22774;-62
2021/05/13 11:12:37;;;;;;;20.90;10.30;;;;;;;16.15;76.43;98785.14;125476;1099;21495;-62
2021/05/13 11:15:15;;;;;;;23.55;12.35;;;;;;;16.26;76.41;98789.73;125503;1104;22919;-62
2021/05/13 11:18:13;;;;;;;26.10;12.00;;;;;;;16.34;75.83;98781.31;126042;1104;22780;-62
2021/05/13 11:20:55;;;;;;;25.65;12.00;;;;;;;16.44;75.92;98777.44;125587;1099;26254;-62
2021/05/13 11:23:27;;;;;;;23.75;11.10;;;;;;;16.58;75.75;98778.86;125884;1104;22865;-62
2021/05/13 11:26:00;;;;;;;23.50;10.65;;;;;;;16.70;75.52;98771.59;125792;1104;22756;-63
2021/05/13 11:28:32;;;;;;;25.55;11.60;;;;;;;16.85;75.19;98782.94;125894;1104;22852;-62